sensor_id;sensor_type;location;lat;lon;timestamp;P1;durP1;ratioP1;P2;durP2;ratioP2
67191;SDS011;54120;53.504;49.426;2023-02-22T00:00:52;11.38;;;7.22;;
67191;SDS011;54120;53.504;49.426;2023-02-22T00:03:21;11.15;;;7.70;;
67191;SDS011;54120;53.504;49.426;2023-02-22T00:05:51;13.23;;;8.32;;
67191;SDS011;54120;53.504;49.426;2023-02-22T00:08:27;12.65;;;7.13;;
67191;SDS011;54120;53.504;49.426;2023-02-22T00:10:56;14.48;;;9.82;;
67191;SDS011;54120;53.504;49.426;2023-02-22T00:13:27;13.20;;;8.50;;
67191;SDS011;54120;53.504;49.426;2023-02-22T00:15:54;14.30;;;9.20;;
67191;SDS011;54120;53.504;49.426;2023-02-22T00:18:24;14.90;;;9.40;;
67191;SDS011;54120;53.504;49.426;2023-02-22T00:20:53;18.88;;;9.80;;
67191;SDS011;54120;53.504;49.426;2023-02-22T00:23:20;14.73;;;9.10;;
67191;SDS011;54120;53.504;49.426;2023-02-22T00:25:48;13.90;;;8.40;;
67191;SDS011;54120;53.504;49.426;2023-02-22T00:28:16;15.02;;;9.30;;
67191;SDS011;54120;53.504;49.426;2023-02-22T00:30:43;14.40;;;8.18;;
67191;SDS011;54120;53.504;49.426;2023-02-22T00:33:11;13.80;;;7.47;;
67191;SDS011;54120;53.504;49.426;2023-02-22T00:35:38;13.95;;;7.47;;
67191;SDS011;54120;53.504;49.426;2023-02-22T00:38:04;13.55;;;8.68;;
67191;SDS011;54120;53.504;49.426;2023-02-22T00:40:32;14.93;;;8.23;;
67191;SDS011;54120;53.504;49.426;2023-02-22T00:43:00;14.48;;;8.35;;
67191;SDS011;54120;53.504;49.426;2023-02-22T00:45:27;12.75;;;7.47;;
67191;SDS011;54120;53.504;49.426;2023-02-22T00:47:55;15.80;;;8.35;;
67191;SDS011;54120;53.504;49.426;2023-02-22T00:50:23;13.35;;;8.18;;
67191;SDS011;54120;53.504;49.426;2023-02-22T00:52:52;12.88;;;8.15;;
67191;SDS011;54120;53.504;49.426;2023-02-22T00:55:20;12.40;;;8.75;;
67191;SDS011;54120;53.504;49.426;2023-02-22T00:57:48;12.90;;;7.95;;
67191;SDS011;54120;53.504;49.426;2023-02-22T01:00:19;13.88;;;7.95;;
67191;SDS011;54120;53.504;49.426;2023-02-22T01:02:48;14.50;;;7.72;;
67191;SDS011;54120;53.504;49.426;2023-02-22T01:05:16;14.77;;;8.00;;
67191;SDS011;54120;53.504;49.426;2023-02-22T01:07:44;15.05;;;9.00;;
67191;SDS011;54120;53.504;49.426;2023-02-22T01:10:10;12.52;;;7.65;;
67191;SDS011;54120;53.504;49.426;2023-02-22T01:12:37;11.82;;;7.50;;
67191;SDS011;54120;53.504;49.426;2023-02-22T01:15:05;11.38;;;6.80;;
67191;SDS011;54120;53.504;49.426;2023-02-22T01:17:35;12.93;;;7.55;;
67191;SDS011;54120;53.504;49.426;2023-02-22T01:20:02;14.35;;;7.18;;
67191;SDS011;54120;53.504;49.426;2023-02-22T01:22:40;11.88;;;6.90;;
67191;SDS011;54120;53.504;49.426;2023-02-22T01:25:07;14.80;;;7.80;;
67191;SDS011;54120;53.504;49.426;2023-02-22T01:27:34;10.93;;;6.97;;
67191;SDS011;54120;53.504;49.426;2023-02-22T01:30:02;12.00;;;6.75;;
67191;SDS011;54120;53.504;49.426;2023-02-22T01:32:33;11.32;;;7.32;;
67191;SDS011;54120;53.504;49.426;2023-02-22T01:35:00;11.07;;;6.40;;
67191;SDS011;54120;53.504;49.426;2023-02-22T01:37:30;10.50;;;6.53;;
67191;SDS011;54120;53.504;49.426;2023-02-22T01:39:56;11.68;;;6.20;;
67191;SDS011;54120;53.504;49.426;2023-02-22T01:42:23;11.23;;;6.93;;
67191;SDS011;54120;53.504;49.426;2023-02-22T01:47:53;11.18;;;6.15;;
67191;SDS011;54120;53.504;49.426;2023-02-22T01:50:21;8.23;;;5.85;;
67191;SDS011;54120;53.504;49.426;2023-02-22T01:52:47;10.38;;;6.30;;
67191;SDS011;54120;53.504;49.426;2023-02-22T01:55:14;8.27;;;5.57;;
67191;SDS011;54120;53.504;49.426;2023-02-22T01:57:42;10.18;;;5.97;;
67191;SDS011;54120;53.504;49.426;2023-02-22T02:00:10;10.43;;;6.25;;
67191;SDS011;54120;53.504;49.426;2023-02-22T02:02:42;8.15;;;5.38;;
67191;SDS011;54120;53.504;49.426;2023-02-22T02:05:11;11.50;;;7.57;;
67191;SDS011;54120;53.504;49.426;2023-02-22T02:07:37;10.25;;;6.68;;
67191;SDS011;54120;53.504;49.426;2023-02-22T02:10:07;11.48;;;6.50;;
67191;SDS011;54120;53.504;49.426;2023-02-22T02:12:39;8.68;;;5.63;;
67191;SDS011;54120;53.504;49.426;2023-02-22T02:15:41;9.85;;;6.75;;
67191;SDS011;54120;53.504;49.426;2023-02-22T02:18:05;10.70;;;6.60;;
67191;SDS011;54120;53.504;49.426;2023-02-22T02:20:51;10.63;;;6.85;;
67191;SDS011;54120;53.504;49.426;2023-02-22T02:26:33;10.75;;;6.70;;
67191;SDS011;54120;53.504;49.426;2023-02-22T02:40:20;19.85;;;10.23;;
67191;SDS011;54120;53.504;49.426;2023-02-22T02:43:38;22.58;;;12.27;;
67191;SDS011;54120;53.504;49.426;2023-02-22T02:45:53;25.67;;;12.68;;
67191;SDS011;54120;53.504;49.426;2023-02-22T02:48:26;30.55;;;13.02;;
67191;SDS011;54120;53.504;49.426;2023-02-22T02:50:54;27.38;;;13.63;;
67191;SDS011;54120;53.504;49.426;2023-02-22T02:53:24;29.58;;;14.75;;
67191;SDS011;54120;53.504;49.426;2023-02-22T02:55:57;23.83;;;12.85;;
67191;SDS011;54120;53.504;49.426;2023-02-22T02:58:24;26.17;;;11.95;;
67191;SDS011;54120;53.504;49.426;2023-02-22T03:00:51;26.00;;;14.45;;
67191;SDS011;54120;53.504;49.426;2023-02-22T03:08:56;24.77;;;11.63;;
67191;SDS011;54120;53.504;49.426;2023-02-22T03:11:42;23.58;;;11.75;;
67191;SDS011;54120;53.504;49.426;2023-02-22T03:14:37;25.33;;;12.20;;
67191;SDS011;54120;53.504;49.426;2023-02-22T03:20:00;26.80;;;13.45;;
67191;SDS011;54120;53.504;49.426;2023-02-22T03:22:44;23.52;;;12.05;;
67191;SDS011;54120;53.504;49.426;2023-02-22T03:25:32;24.25;;;12.60;;
67191;SDS011;54120;53.504;49.426;2023-02-22T03:28:02;20.13;;;11.25;;
67191;SDS011;54120;53.504;49.426;2023-02-22T03:30:34;17.45;;;9.43;;
67191;SDS011;54120;53.504;49.426;2023-02-22T03:33:09;23.02;;;12.13;;
67191;SDS011;54120;53.504;49.426;2023-02-22T03:35:41;16.17;;;9.85;;
67191;SDS011;54120;53.504;49.426;2023-02-22T03:38:13;15.88;;;9.35;;
67191;SDS011;54120;53.504;49.426;2023-02-22T03:40:44;17.00;;;10.27;;
67191;SDS011;54120;53.504;49.426;2023-02-22T03:43:14;13.23;;;7.82;;
67191;SDS011;54120;53.504;49.426;2023-02-22T03:45:45;18.05;;;8.38;;
67191;SDS011;54120;53.504;49.426;2023-02-22T03:48:34;15.75;;;8.75;;
67191;SDS011;54120;53.504;49.426;2023-02-22T03:51:09;13.45;;;7.18;;
67191;SDS011;54120;53.504;49.426;2023-02-22T03:53:39;14.13;;;7.03;;
67191;SDS011;54120;53.504;49.426;2023-02-22T03:56:06;19.73;;;7.75;;
67191;SDS011;54120;53.504;49.426;2023-02-22T03:58:35;22.70;;;8.60;;
67191;SDS011;54120;53.504;49.426;2023-02-22T04:01:02;15.13;;;7.40;;
67191;SDS011;54120;53.504;49.426;2023-02-22T04:03:29;15.85;;;8.13;;
67191;SDS011;54120;53.504;49.426;2023-02-22T04:05:55;18.42;;;7.45;;
67191;SDS011;54120;53.504;49.426;2023-02-22T04:08:21;18.70;;;7.75;;
67191;SDS011;54120;53.504;49.426;2023-02-22T04:10:47;18.45;;;8.48;;
67191;SDS011;54120;53.504;49.426;2023-02-22T04:13:13;18.60;;;6.60;;
67191;SDS011;54120;53.504;49.426;2023-02-22T04:15:39;24.52;;;6.85;;
67191;SDS011;54120;53.504;49.426;2023-02-22T04:18:05;20.25;;;7.45;;
67191;SDS011;54120;53.504;49.426;2023-02-22T04:20:31;11.82;;;6.82;;
67191;SDS011;54120;53.504;49.426;2023-02-22T04:22:59;13.40;;;7.80;;
67191;SDS011;54120;53.504;49.426;2023-02-22T04:25:25;12.70;;;7.35;;
67191;SDS011;54120;53.504;49.426;2023-02-22T04:27:51;14.88;;;7.00;;
67191;SDS011;54120;53.504;49.426;2023-02-22T04:30:18;12.07;;;6.70;;
67191;SDS011;54120;53.504;49.426;2023-02-22T04:32:44;14.25;;;7.07;;
67191;SDS011;54120;53.504;49.426;2023-02-22T04:35:10;10.95;;;5.45;;
67191;SDS011;54120;53.504;49.426;2023-02-22T04:37:36;15.05;;;7.30;;
67191;SDS011;54120;53.504;49.426;2023-02-22T04:40:03;14.40;;;8.25;;
67191;SDS011;54120;53.504;49.426;2023-02-22T04:42:36;15.80;;;7.93;;
67191;SDS011;54120;53.504;49.426;2023-02-22T04:45:03;14.20;;;7.65;;
67191;SDS011;54120;53.504;49.426;2023-02-22T04:47:32;18.10;;;8.70;;
67191;SDS011;54120;53.504;49.426;2023-02-22T04:49:59;21.15;;;9.82;;
67191;SDS011;54120;53.504;49.426;2023-02-22T04:52:26;20.85;;;8.60;;
67191;SDS011;54120;53.504;49.426;2023-02-22T04:54:52;14.73;;;7.57;;
67191;SDS011;54120;53.504;49.426;2023-02-22T04:57:18;16.67;;;7.47;;
67191;SDS011;54120;53.504;49.426;2023-02-22T04:59:44;15.02;;;7.10;;
67191;SDS011;54120;53.504;49.426;2023-02-22T05:02:10;13.43;;;7.10;;
67191;SDS011;54120;53.504;49.426;2023-02-22T05:04:37;13.77;;;7.43;;
67191;SDS011;54120;53.504;49.426;2023-02-22T05:07:03;18.02;;;8.55;;
67191;SDS011;54120;53.504;49.426;2023-02-22T05:09:29;18.48;;;8.13;;
67191;SDS011;54120;53.504;49.426;2023-02-22T05:11:55;13.30;;;7.22;;
67191;SDS011;54120;53.504;49.426;2023-02-22T05:14:22;14.02;;;7.63;;
67191;SDS011;54120;53.504;49.426;2023-02-22T05:16:52;16.27;;;6.85;;
67191;SDS011;54120;53.504;49.426;2023-02-22T05:19:22;16.95;;;8.52;;
67191;SDS011;54120;53.504;49.426;2023-02-22T05:21:48;33.25;;;13.38;;
67191;SDS011;54120;53.504;49.426;2023-02-22T05:24:15;27.88;;;11.60;;
67191;SDS011;54120;53.504;49.426;2023-02-22T05:26:42;21.25;;;9.80;;
67191;SDS011;54120;53.504;49.426;2023-02-22T05:29:08;21.88;;;10.48;;
67191;SDS011;54120;53.504;49.426;2023-02-22T05:31:35;26.55;;;11.82;;
67191;SDS011;54120;53.504;49.426;2023-02-22T05:34:01;23.90;;;10.75;;
67191;SDS011;54120;53.504;49.426;2023-02-22T05:36:27;26.95;;;12.85;;
67191;SDS011;54120;53.504;49.426;2023-02-22T05:38:53;23.52;;;11.95;;
67191;SDS011;54120;53.504;49.426;2023-02-22T05:41:20;28.77;;;13.93;;
67191;SDS011;54120;53.504;49.426;2023-02-22T05:43:46;37.90;;;17.88;;
67191;SDS011;54120;53.504;49.426;2023-02-22T05:46:12;46.38;;;21.85;;
67191;SDS011;54120;53.504;49.426;2023-02-22T05:48:39;34.75;;;17.67;;
67191;SDS011;54120;53.504;49.426;2023-02-22T05:51:05;24.40;;;11.30;;
67191;SDS011;54120;53.504;49.426;2023-02-22T05:53:31;26.75;;;13.10;;
67191;SDS011;54120;53.504;49.426;2023-02-22T05:55:57;42.67;;;20.65;;
67191;SDS011;54120;53.504;49.426;2023-02-22T05:58:24;41.38;;;19.48;;
67191;SDS011;54120;53.504;49.426;2023-02-22T06:00:50;45.80;;;22.08;;
67191;SDS011;54120;53.504;49.426;2023-02-22T06:03:16;44.65;;;22.58;;
67191;SDS011;54120;53.504;49.426;2023-02-22T06:05:42;42.47;;;22.40;;
67191;SDS011;54120;53.504;49.426;2023-02-22T06:08:08;52.88;;;26.05;;
67191;SDS011;54120;53.504;49.426;2023-02-22T06:10:34;51.05;;;25.45;;
67191;SDS011;54120;53.504;49.426;2023-02-22T06:13:00;33.17;;;17.05;;
67191;SDS011;54120;53.504;49.426;2023-02-22T06:15:28;27.90;;;14.18;;
67191;SDS011;54120;53.504;49.426;2023-02-22T06:17:55;20.50;;;10.85;;
67191;SDS011;54120;53.504;49.426;2023-02-22T06:20:22;19.88;;;11.05;;
67191;SDS011;54120;53.504;49.426;2023-02-22T06:22:50;21.08;;;11.23;;
67191;SDS011;54120;53.504;49.426;2023-02-22T06:25:19;27.23;;;12.32;;
67191;SDS011;54120;53.504;49.426;2023-02-22T06:27:48;21.42;;;11.55;;
67191;SDS011;54120;53.504;49.426;2023-02-22T06:30:15;21.13;;;12.02;;
67191;SDS011;54120;53.504;49.426;2023-02-22T06:32:43;17.60;;;8.50;;
67191;SDS011;54120;53.504;49.426;2023-02-22T06:35:09;18.20;;;9.65;;
67191;SDS011;54120;53.504;49.426;2023-02-22T06:37:35;19.13;;;10.02;;
67191;SDS011;54120;53.504;49.426;2023-02-22T06:40:03;20.65;;;10.27;;
67191;SDS011;54120;53.504;49.426;2023-02-22T06:42:29;20.67;;;11.00;;
67191;SDS011;54120;53.504;49.426;2023-02-22T06:44:55;20.88;;;10.02;;
67191;SDS011;54120;53.504;49.426;2023-02-22T06:47:21;29.65;;;16.75;;
67191;SDS011;54120;53.504;49.426;2023-02-22T06:49:53;33.25;;;17.58;;
67191;SDS011;54120;53.504;49.426;2023-02-22T06:52:20;22.77;;;12.65;;
67191;SDS011;54120;53.504;49.426;2023-02-22T06:54:47;26.95;;;14.15;;
67191;SDS011;54120;53.504;49.426;2023-02-22T06:57:14;18.95;;;9.93;;
67191;SDS011;54120;53.504;49.426;2023-02-22T06:59:40;28.77;;;14.23;;
67191;SDS011;54120;53.504;49.426;2023-02-22T07:02:06;31.67;;;14.50;;
67191;SDS011;54120;53.504;49.426;2023-02-22T07:04:32;29.45;;;14.73;;
67191;SDS011;54120;53.504;49.426;2023-02-22T07:06:58;18.33;;;10.43;;
67191;SDS011;54120;53.504;49.426;2023-02-22T07:09:24;18.90;;;9.95;;
67191;SDS011;54120;53.504;49.426;2023-02-22T07:11:50;17.55;;;9.23;;
67191;SDS011;54120;53.504;49.426;2023-02-22T07:14:16;16.95;;;9.50;;
67191;SDS011;54120;53.504;49.426;2023-02-22T07:16:42;17.65;;;9.73;;
67191;SDS011;54120;53.504;49.426;2023-02-22T07:19:08;18.33;;;10.48;;
67191;SDS011;54120;53.504;49.426;2023-02-22T07:21:34;18.75;;;10.55;;
67191;SDS011;54120;53.504;49.426;2023-02-22T07:24:00;18.15;;;8.75;;
67191;SDS011;54120;53.504;49.426;2023-02-22T07:26:26;14.35;;;7.75;;
67191;SDS011;54120;53.504;49.426;2023-02-22T07:28:53;14.48;;;9.15;;
67191;SDS011;54120;53.504;49.426;2023-02-22T07:31:20;14.45;;;8.90;;
67191;SDS011;54120;53.504;49.426;2023-02-22T07:33:46;12.45;;;6.35;;
67191;SDS011;54120;53.504;49.426;2023-02-22T07:36:12;13.70;;;7.10;;
67191;SDS011;54120;53.504;49.426;2023-02-22T07:38:43;11.55;;;7.50;;
67191;SDS011;54120;53.504;49.426;2023-02-22T07:41:11;11.82;;;7.10;;
67191;SDS011;54120;53.504;49.426;2023-02-22T07:43:37;13.43;;;7.72;;
67191;SDS011;54120;53.504;49.426;2023-02-22T07:46:03;11.10;;;6.75;;
67191;SDS011;54120;53.504;49.426;2023-02-22T07:48:30;10.10;;;5.82;;
67191;SDS011;54120;53.504;49.426;2023-02-22T07:50:56;9.15;;;6.15;;
67191;SDS011;54120;53.504;49.426;2023-02-22T07:53:24;11.60;;;6.20;;
67191;SDS011;54120;53.504;49.426;2023-02-22T07:55:55;8.93;;;6.45;;
67191;SDS011;54120;53.504;49.426;2023-02-22T07:58:23;10.55;;;6.00;;
67191;SDS011;54120;53.504;49.426;2023-02-22T08:00:51;9.13;;;5.45;;
67191;SDS011;54120;53.504;49.426;2023-02-22T08:03:18;7.35;;;5.10;;
67191;SDS011;54120;53.504;49.426;2023-02-22T08:05:48;8.10;;;5.18;;
67191;SDS011;54120;53.504;49.426;2023-02-22T08:08:16;9.82;;;6.22;;
67191;SDS011;54120;53.504;49.426;2023-02-22T08:10:42;9.60;;;5.68;;
67191;SDS011;54120;53.504;49.426;2023-02-22T08:13:09;6.90;;;4.80;;
67191;SDS011;54120;53.504;49.426;2023-02-22T08:15:37;5.93;;;4.55;;
67191;SDS011;54120;53.504;49.426;2023-02-22T08:18:06;13.43;;;5.53;;
67191;SDS011;54120;53.504;49.426;2023-02-22T08:20:34;7.32;;;5.30;;
67191;SDS011;54120;53.504;49.426;2023-02-22T08:23:02;8.95;;;5.05;;
67191;SDS011;54120;53.504;49.426;2023-02-22T08:25:29;7.35;;;4.80;;
67191;SDS011;54120;53.504;49.426;2023-02-22T08:27:57;8.70;;;5.55;;
67191;SDS011;54120;53.504;49.426;2023-02-22T08:30:28;9.60;;;5.82;;
67191;SDS011;54120;53.504;49.426;2023-02-22T08:32:55;32.15;;;14.52;;
67191;SDS011;54120;53.504;49.426;2023-02-22T08:35:22;9.07;;;5.63;;
67191;SDS011;54120;53.504;49.426;2023-02-22T08:37:50;7.88;;;5.00;;
67191;SDS011;54120;53.504;49.426;2023-02-22T08:40:19;8.02;;;5.30;;
67191;SDS011;54120;53.504;49.426;2023-02-22T08:42:47;10.38;;;5.82;;
67191;SDS011;54120;53.504;49.426;2023-02-22T08:45:14;6.07;;;5.07;;
67191;SDS011;54120;53.504;49.426;2023-02-22T08:47:41;8.98;;;5.22;;
67191;SDS011;54120;53.504;49.426;2023-02-22T08:50:10;8.10;;;5.70;;
67191;SDS011;54120;53.504;49.426;2023-02-22T08:52:46;7.57;;;5.32;;
67191;SDS011;54120;53.504;49.426;2023-02-22T08:55:14;6.70;;;4.65;;
67191;SDS011;54120;53.504;49.426;2023-02-22T08:57:40;6.90;;;4.95;;
67191;SDS011;54120;53.504;49.426;2023-02-22T09:00:06;6.10;;;5.00;;
67191;SDS011;54120;53.504;49.426;2023-02-22T09:02:32;7.00;;;4.60;;
67191;SDS011;54120;53.504;49.426;2023-02-22T09:04:58;6.40;;;5.15;;
67191;SDS011;54120;53.504;49.426;2023-02-22T09:07:25;6.10;;;4.97;;
67191;SDS011;54120;53.504;49.426;2023-02-22T09:09:52;6.40;;;4.43;;
67191;SDS011;54120;53.504;49.426;2023-02-22T09:12:17;6.43;;;4.15;;
67191;SDS011;54120;53.504;49.426;2023-02-22T09:14:44;6.38;;;4.65;;
67191;SDS011;54120;53.504;49.426;2023-02-22T09:17:10;6.43;;;4.20;;
67191;SDS011;54120;53.504;49.426;2023-02-22T09:19:36;7.40;;;4.60;;
67191;SDS011;54120;53.504;49.426;2023-02-22T09:22:02;6.47;;;4.72;;
67191;SDS011;54120;53.504;49.426;2023-02-22T09:24:28;6.95;;;4.82;;
67191;SDS011;54120;53.504;49.426;2023-02-22T09:26:54;6.78;;;4.95;;
67191;SDS011;54120;53.504;49.426;2023-02-22T09:29:21;6.13;;;4.65;;
67191;SDS011;54120;53.504;49.426;2023-02-22T09:31:50;5.97;;;4.57;;
67191;SDS011;54120;53.504;49.426;2023-02-22T09:34:18;6.22;;;4.95;;
67191;SDS011;54120;53.504;49.426;2023-02-22T09:36:47;6.57;;;4.88;;
67191;SDS011;54120;53.504;49.426;2023-02-22T09:39:15;6.72;;;4.88;;
67191;SDS011;54120;53.504;49.426;2023-02-22T09:44:16;6.25;;;4.95;;
67191;SDS011;54120;53.504;49.426;2023-02-22T09:47:06;6.70;;;4.93;;
67191;SDS011;54120;53.504;49.426;2023-02-22T09:52:24;5.63;;;4.40;;
67191;SDS011;54120;53.504;49.426;2023-02-22T09:55:05;5.55;;;4.45;;
67191;SDS011;54120;53.504;49.426;2023-02-22T09:57:37;5.40;;;4.22;;
67191;SDS011;54120;53.504;49.426;2023-02-22T10:00:19;12.77;;;4.45;;
67191;SDS011;54120;53.504;49.426;2023-02-22T10:05:33;4.85;;;4.18;;
67191;SDS011;54120;53.504;49.426;2023-02-22T10:08:03;7.03;;;4.38;;
67191;SDS011;54120;53.504;49.426;2023-02-22T10:10:35;5.13;;;4.00;;
67191;SDS011;54120;53.504;49.426;2023-02-22T10:21:11;4.88;;;4.13;;
67191;SDS011;54120;53.504;49.426;2023-02-22T10:26:51;6.35;;;4.30;;
67191;SDS011;54120;53.504;49.426;2023-02-22T10:29:35;6.22;;;4.22;;
67191;SDS011;54120;53.504;49.426;2023-02-22T10:32:25;4.90;;;3.90;;
67191;SDS011;54120;53.504;49.426;2023-02-22T10:34:55;4.57;;;4.00;;
67191;SDS011;54120;53.504;49.426;2023-02-22T10:37:32;4.70;;;3.83;;
67191;SDS011;54120;53.504;49.426;2023-02-22T10:42:38;5.40;;;4.05;;
67191;SDS011;54120;53.504;49.426;2023-02-22T10:45:20;4.95;;;3.88;;
67191;SDS011;54120;53.504;49.426;2023-02-22T10:50:18;5.70;;;4.22;;
67191;SDS011;54120;53.504;49.426;2023-02-22T10:52:46;6.00;;;4.28;;
67191;SDS011;54120;53.504;49.426;2023-02-22T10:55:13;5.40;;;4.53;;
67191;SDS011;54120;53.504;49.426;2023-02-22T10:57:40;5.85;;;4.53;;
67191;SDS011;54120;53.504;49.426;2023-02-22T11:00:22;6.55;;;4.97;;
67191;SDS011;54120;53.504;49.426;2023-02-22T11:02:55;5.65;;;4.40;;
67191;SDS011;54120;53.504;49.426;2023-02-22T11:08:14;6.07;;;5.03;;
67191;SDS011;54120;53.504;49.426;2023-02-22T11:10:40;6.60;;;4.95;;
67191;SDS011;54120;53.504;49.426;2023-02-22T11:13:17;6.45;;;5.30;;
67191;SDS011;54120;53.504;49.426;2023-02-22T11:15:59;9.18;;;5.72;;
67191;SDS011;54120;53.504;49.426;2023-02-22T11:21:07;9.75;;;6.22;;
67191;SDS011;54120;53.504;49.426;2023-02-22T11:23:36;8.63;;;6.30;;
67191;SDS011;54120;53.504;49.426;2023-02-22T11:26:07;10.32;;;6.32;;
67191;SDS011;54120;53.504;49.426;2023-02-22T11:28:44;8.20;;;5.72;;
67191;SDS011;54120;53.504;49.426;2023-02-22T11:31:26;10.20;;;5.80;;
67191;SDS011;54120;53.504;49.426;2023-02-22T11:33:56;8.43;;;6.40;;
67191;SDS011;54120;53.504;49.426;2023-02-22T11:39:03;9.85;;;6.47;;
67191;SDS011;54120;53.504;49.426;2023-02-22T11:41:35;9.57;;;6.85;;
67191;SDS011;54120;53.504;49.426;2023-02-22T11:44:11;11.32;;;6.78;;
67191;SDS011;54120;53.504;49.426;2023-02-22T11:46:45;9.43;;;6.90;;
67191;SDS011;54120;53.504;49.426;2023-02-22T11:49:12;10.00;;;6.53;;
67191;SDS011;54120;53.504;49.426;2023-02-22T11:56:47;15.05;;;8.95;;
67191;SDS011;54120;53.504;49.426;2023-02-22T12:02:18;15.68;;;8.68;;
67191;SDS011;54120;53.504;49.426;2023-02-22T12:05:00;15.75;;;8.98;;
67191;SDS011;54120;53.504;49.426;2023-02-22T12:16:18;17.85;;;10.00;;
67191;SDS011;54120;53.504;49.426;2023-02-22T12:22:29;19.55;;;11.00;;
67191;SDS011;54120;53.504;49.426;2023-02-22T12:28:15;19.92;;;10.27;;
67191;SDS011;54120;53.504;49.426;2023-02-22T12:30:43;18.95;;;10.32;;
67191;SDS011;54120;53.504;49.426;2023-02-22T12:33:16;23.42;;;11.50;;
67191;SDS011;54120;53.504;49.426;2023-02-22T12:35:52;20.77;;;11.45;;
67191;SDS011;54120;53.504;49.426;2023-02-22T12:38:29;23.35;;;11.38;;
67191;SDS011;54120;53.504;49.426;2023-02-22T12:48:45;24.13;;;11.95;;
67191;SDS011;54120;53.504;49.426;2023-02-22T12:57:20;25.20;;;12.52;;
67191;SDS011;54120;53.504;49.426;2023-02-22T12:59:59;27.25;;;13.45;;
67191;SDS011;54120;53.504;49.426;2023-02-22T13:02:54;35.03;;;15.63;;
67191;SDS011;54120;53.504;49.426;2023-02-22T13:05:26;33.00;;;17.08;;
67191;SDS011;54120;53.504;49.426;2023-02-22T13:08:06;33.00;;;14.98;;
67191;SDS011;54120;53.504;49.426;2023-02-22T13:13:17;30.40;;;17.00;;
67191;SDS011;54120;53.504;49.426;2023-02-22T13:21:22;37.00;;;17.65;;
67191;SDS011;54120;53.504;49.426;2023-02-22T13:29:16;43.95;;;19.35;;
67191;SDS011;54120;53.504;49.426;2023-02-22T13:57:03;42.00;;;21.83;;
67191;SDS011;54120;53.504;49.426;2023-02-22T13:59:43;49.10;;;23.30;;
67191;SDS011;54120;53.504;49.426;2023-02-22T14:10:48;48.05;;;23.83;;
67191;SDS011;54120;53.504;49.426;2023-02-22T14:14:23;46.08;;;22.42;;
67191;SDS011;54120;53.504;49.426;2023-02-22T14:16:28;47.75;;;26.17;;
67191;SDS011;54120;53.504;49.426;2023-02-22T14:19:14;47.47;;;23.25;;
67191;SDS011;54120;53.504;49.426;2023-02-22T14:22:03;43.00;;;21.73;;
67191;SDS011;54120;53.504;49.426;2023-02-22T14:24:41;55.40;;;24.30;;
67191;SDS011;54120;53.504;49.426;2023-02-22T14:27:10;46.58;;;22.88;;
67191;SDS011;54120;53.504;49.426;2023-02-22T14:29:44;80.80;;;25.23;;
67191;SDS011;54120;53.504;49.426;2023-02-22T14:32:18;41.13;;;21.17;;
67191;SDS011;54120;53.504;49.426;2023-02-22T14:34:52;45.15;;;22.33;;
67191;SDS011;54120;53.504;49.426;2023-02-22T14:37:26;43.63;;;21.10;;
67191;SDS011;54120;53.504;49.426;2023-02-22T14:39:58;41.83;;;21.15;;
67191;SDS011;54120;53.504;49.426;2023-02-22T14:42:59;46.42;;;23.70;;
67191;SDS011;54120;53.504;49.426;2023-02-22T14:45:24;51.63;;;25.08;;
67191;SDS011;54120;53.504;49.426;2023-02-22T14:55:40;46.30;;;21.85;;
67191;SDS011;54120;53.504;49.426;2023-02-22T14:58:15;53.08;;;24.33;;
67191;SDS011;54120;53.504;49.426;2023-02-22T15:00:48;41.45;;;21.00;;
67191;SDS011;54120;53.504;49.426;2023-02-22T15:03:33;49.20;;;24.50;;
67191;SDS011;54120;53.504;49.426;2023-02-22T15:06:03;42.97;;;20.03;;
67191;SDS011;54120;53.504;49.426;2023-02-22T15:08:30;45.22;;;20.55;;
67191;SDS011;54120;53.504;49.426;2023-02-22T15:10:59;50.13;;;22.95;;
67191;SDS011;54120;53.504;49.426;2023-02-22T15:13:27;43.92;;;20.77;;
67191;SDS011;54120;53.504;49.426;2023-02-22T15:15:58;44.95;;;21.83;;
67191;SDS011;54120;53.504;49.426;2023-02-22T15:18:45;57.60;;;23.95;;
67191;SDS011;54120;53.504;49.426;2023-02-22T15:21:15;48.45;;;21.83;;
67191;SDS011;54120;53.504;49.426;2023-02-22T15:28:46;48.13;;;20.67;;
67191;SDS011;54120;53.504;49.426;2023-02-22T15:31:13;48.53;;;24.05;;
67191;SDS011;54120;53.504;49.426;2023-02-22T15:33:47;43.63;;;21.27;;
67191;SDS011;54120;53.504;49.426;2023-02-22T15:36:17;45.60;;;22.60;;
67191;SDS011;54120;53.504;49.426;2023-02-22T15:38:51;49.88;;;21.52;;
67191;SDS011;54120;53.504;49.426;2023-02-22T15:41:30;41.88;;;22.00;;
67191;SDS011;54120;53.504;49.426;2023-02-22T15:46:24;42.65;;;22.35;;
67191;SDS011;54120;53.504;49.426;2023-02-22T15:51:34;43.83;;;22.35;;
67191;SDS011;54120;53.504;49.426;2023-02-22T15:54:03;69.45;;;24.60;;
67191;SDS011;54120;53.504;49.426;2023-02-22T15:56:39;56.28;;;24.83;;
67191;SDS011;54120;53.504;49.426;2023-02-22T15:59:12;48.38;;;21.15;;
67191;SDS011;54120;53.504;49.426;2023-02-22T16:01:43;41.80;;;20.45;;
67191;SDS011;54120;53.504;49.426;2023-02-22T16:04:16;43.90;;;22.45;;
67191;SDS011;54120;53.504;49.426;2023-02-22T16:06:44;43.40;;;20.95;;
67191;SDS011;54120;53.504;49.426;2023-02-22T16:11:40;43.00;;;20.15;;
67191;SDS011;54120;53.504;49.426;2023-02-22T16:19:50;42.70;;;20.70;;
67191;SDS011;54120;53.504;49.426;2023-02-22T16:24:51;41.00;;;20.15;;
67191;SDS011;54120;53.504;49.426;2023-02-22T16:27:22;42.90;;;21.35;;
67191;SDS011;54120;53.504;49.426;2023-02-22T16:30:20;41.45;;;21.23;;
67191;SDS011;54120;53.504;49.426;2023-02-22T16:32:52;41.63;;;19.90;;
67191;SDS011;54120;53.504;49.426;2023-02-22T16:35:20;72.38;;;21.38;;
67191;SDS011;54120;53.504;49.426;2023-02-22T16:38:02;49.33;;;23.48;;
67191;SDS011;54120;53.504;49.426;2023-02-22T16:40:40;43.55;;;20.50;;
67191;SDS011;54120;53.504;49.426;2023-02-22T16:43:12;53.40;;;23.60;;
67191;SDS011;54120;53.504;49.426;2023-02-22T16:45:41;43.17;;;21.45;;
67191;SDS011;54120;53.504;49.426;2023-02-22T16:48:24;45.22;;;21.48;;
67191;SDS011;54120;53.504;49.426;2023-02-22T16:50:52;47.72;;;22.63;;
67191;SDS011;54120;53.504;49.426;2023-02-22T16:53:20;43.90;;;21.90;;
67191;SDS011;54120;53.504;49.426;2023-02-22T16:55:48;44.30;;;22.25;;
67191;SDS011;54120;53.504;49.426;2023-02-22T16:58:22;48.03;;;21.40;;
67191;SDS011;54120;53.504;49.426;2023-02-22T17:00:53;50.50;;;24.35;;
67191;SDS011;54120;53.504;49.426;2023-02-22T17:03:21;41.90;;;21.35;;
67191;SDS011;54120;53.504;49.426;2023-02-22T17:05:56;58.83;;;22.75;;
67191;SDS011;54120;53.504;49.426;2023-02-22T17:08:22;46.45;;;21.90;;
67191;SDS011;54120;53.504;49.426;2023-02-22T17:10:48;47.38;;;23.33;;
67191;SDS011;54120;53.504;49.426;2023-02-22T17:13:18;45.63;;;22.95;;
67191;SDS011;54120;53.504;49.426;2023-02-22T17:15:46;47.00;;;22.95;;
67191;SDS011;54120;53.504;49.426;2023-02-22T17:18:13;44.30;;;24.65;;
67191;SDS011;54120;53.504;49.426;2023-02-22T17:20:47;43.33;;;21.27;;
67191;SDS011;54120;53.504;49.426;2023-02-22T17:23:17;45.03;;;23.20;;
67191;SDS011;54120;53.504;49.426;2023-02-22T17:25:46;45.97;;;23.20;;
67191;SDS011;54120;53.504;49.426;2023-02-22T17:28:15;43.30;;;22.05;;